sensor_id;sensor_type;location;lat;lon;timestamp;temperature;humidity
6865;DHT22;3471;49.678;8.388;2024-01-30T00:01:15;3.50;99.90
6865;DHT22;3471;49.678;8.388;2024-01-30T00:03:41;3.50;99.90
6865;DHT22;3471;49.678;8.388;2024-01-30T00:06:11;3.50;99.90
6865;DHT22;3471;49.678;8.388;2024-01-30T00:08:36;3.50;99.90
6865;DHT22;3471;49.678;8.388;2024-01-30T00:11:02;3.50;99.90
6865;DHT22;3471;49.678;8.388;2024-01-30T00:13:27;3.60;99.90
6865;DHT22;3471;49.678;8.388;2024-01-30T00:15:53;3.60;99.90
6865;DHT22;3471;49.678;8.388;2024-01-30T00:18:19;3.70;99.90
6865;DHT22;3471;49.678;8.388;2024-01-30T00:20:45;3.70;99.90
6865;DHT22;3471;49.678;8.388;2024-01-30T00:23:10;3.70;99.90
6865;DHT22;3471;49.678;8.388;2024-01-30T00:25:36;3.70;99.90
6865;DHT22;3471;49.678;8.388;2024-01-30T00:28:02;3.70;99.90
6865;DHT22;3471;49.678;8.388;2024-01-30T00:30:28;3.70;99.90
6865;DHT22;3471;49.678;8.388;2024-01-30T00:32:54;3.70;99.90
6865;DHT22;3471;49.678;8.388;2024-01-30T00:35:19;3.70;99.90
6865;DHT22;3471;49.678;8.388;2024-01-30T00:37:47;3.60;99.90
6865;DHT22;3471;49.678;8.388;2024-01-30T00:40:13;3.70;99.90
6865;DHT22;3471;49.678;8.388;2024-01-30T00:42:44;3.60;99.90
6865;DHT22;3471;49.678;8.388;2024-01-30T00:45:15;3.60;99.90
6865;DHT22;3471;49.678;8.388;2024-01-30T00:47:42;3.60;99.90
6865;DHT22;3471;49.678;8.388;2024-01-30T00:50:08;3.60;99.90
6865;DHT22;3471;49.678;8.388;2024-01-30T00:52:34;3.60;99.90
6865;DHT22;3471;49.678;8.388;2024-01-30T00:55:00;3.60;99.90
6865;DHT22;3471;49.678;8.388;2024-01-30T00:57:25;3.60;99.90
6865;DHT22;3471;49.678;8.388;2024-01-30T00:59:52;3.60;99.90
6865;DHT22;3471;49.678;8.388;2024-01-30T01:02:18;3.70;99.90
6865;DHT22;3471;49.678;8.388;2024-01-30T01:04:44;3.60;99.90
6865;DHT22;3471;49.678;8.388;2024-01-30T01:07:10;3.60;99.90
6865;DHT22;3471;49.678;8.388;2024-01-30T01:09:36;3.50;99.90
6865;DHT22;3471;49.678;8.388;2024-01-30T01:12:02;3.50;99.90
6865;DHT22;3471;49.678;8.388;2024-01-30T01:14:28;3.40;99.90
6865;DHT22;3471;49.678;8.388;2024-01-30T01:16:53;3.30;99.90
6865;DHT22;3471;49.678;8.388;2024-01-30T01:19:19;3.30;99.90
6865;DHT22;3471;49.678;8.388;2024-01-30T01:21:44;3.20;99.90
6865;DHT22;3471;49.678;8.388;2024-01-30T01:24:10;3.20;99.90
6865;DHT22;3471;49.678;8.388;2024-01-30T01:26:36;3.10;99.90
6865;DHT22;3471;49.678;8.388;2024-01-30T01:29:01;3.00;99.90
6865;DHT22;3471;49.678;8.388;2024-01-30T01:31:29;3.00;99.90
6865;DHT22;3471;49.678;8.388;2024-01-30T01:33:55;3.00;99.90
6865;DHT22;3471;49.678;8.388;2024-01-30T01:36:21;3.00;99.90
6865;DHT22;3471;49.678;8.388;2024-01-30T01:38:46;2.90;99.90
6865;DHT22;3471;49.678;8.388;2024-01-30T01:41:12;2.90;99.90
6865;DHT22;3471;49.678;8.388;2024-01-30T01:43:38;2.90;99.90
6865;DHT22;3471;49.678;8.388;2024-01-30T01:46:05;2.90;99.90
6865;DHT22;3471;49.678;8.388;2024-01-30T01:48:32;2.90;99.90
6865;DHT22;3471;49.678;8.388;2024-01-30T01:50:58;2.90;99.90
6865;DHT22;3471;49.678;8.388;2024-01-30T01:53:24;2.90;99.90
6865;DHT22;3471;49.678;8.388;2024-01-30T01:55:51;2.90;99.90
6865;DHT22;3471;49.678;8.388;2024-01-30T01:58:19;2.90;99.90
6865;DHT22;3471;49.678;8.388;2024-01-30T02:00:46;3.00;99.90
6865;DHT22;3471;49.678;8.388;2024-01-30T02:03:13;3.00;99.90
6865;DHT22;3471;49.678;8.388;2024-01-30T02:05:40;3.00;99.90
6865;DHT22;3471;49.678;8.388;2024-01-30T02:08:06;3.00;99.90
6865;DHT22;3471;49.678;8.388;2024-01-30T02:10:34;3.00;99.90
6865;DHT22;3471;49.678;8.388;2024-01-30T02:12:59;3.00;99.90
6865;DHT22;3471;49.678;8.388;2024-01-30T02:15:25;3.00;99.90
6865;DHT22;3471;49.678;8.388;2024-01-30T02:17:50;3.00;99.90
6865;DHT22;3471;49.678;8.388;2024-01-30T02:20:16;3.00;99.90
6865;DHT22;3471;49.678;8.388;2024-01-30T02:22:43;3.00;99.90
6865;DHT22;3471;49.678;8.388;2024-01-30T02:25:08;3.00;99.90
6865;DHT22;3471;49.678;8.388;2024-01-30T02:27:34;3.00;99.90
6865;DHT22;3471;49.678;8.388;2024-01-30T02:29:59;3.00;99.90
6865;DHT22;3471;49.678;8.388;2024-01-30T02:32:25;2.90;99.90
6865;DHT22;3471;49.678;8.388;2024-01-30T02:34:50;2.90;99.90
6865;DHT22;3471;49.678;8.388;2024-01-30T02:37:17;2.90;99.90
6865;DHT22;3471;49.678;8.388;2024-01-30T02:39:42;2.80;99.90
6865;DHT22;3471;49.678;8.388;2024-01-30T02:42:08;2.70;99.90
6865;DHT22;3471;49.678;8.388;2024-01-30T02:44:34;2.70;99.90
6865;DHT22;3471;49.678;8.388;2024-01-30T02:46:59;2.60;99.90
6865;DHT22;3471;49.678;8.388;2024-01-30T02:49:25;2.60;99.90
6865;DHT22;3471;49.678;8.388;2024-01-30T02:51:52;2.60;99.90
6865;DHT22;3471;49.678;8.388;2024-01-30T02:54:18;2.70;99.90
6865;DHT22;3471;49.678;8.388;2024-01-30T02:56:43;2.60;99.90
6865;DHT22;3471;49.678;8.388;2024-01-30T02:59:09;2.50;99.90
6865;DHT22;3471;49.678;8.388;2024-01-30T03:01:42;2.50;99.90
6865;DHT22;3471;49.678;8.388;2024-01-30T03:04:08;2.50;99.90
6865;DHT22;3471;49.678;8.388;2024-01-30T03:06:34;2.60;99.90
6865;DHT22;3471;49.678;8.388;2024-01-30T03:08:59;2.50;99.90
6865;DHT22;3471;49.678;8.388;2024-01-30T03:11:25;2.50;99.90
6865;DHT22;3471;49.678;8.388;2024-01-30T03:13:50;2.50;99.90
6865;DHT22;3471;49.678;8.388;2024-01-30T03:16:16;2.40;99.90
6865;DHT22;3471;49.678;8.388;2024-01-30T03:18:41;2.40;99.90
6865;DHT22;3471;49.678;8.388;2024-01-30T03:21:07;2.40;99.90
6865;DHT22;3471;49.678;8.388;2024-01-30T03:23:32;2.40;99.90
6865;DHT22;3471;49.678;8.388;2024-01-30T03:25:58;2.40;99.90
6865;DHT22;3471;49.678;8.388;2024-01-30T03:28:24;2.40;99.90
6865;DHT22;3471;49.678;8.388;2024-01-30T03:30:49;2.40;99.90
6865;DHT22;3471;49.678;8.388;2024-01-30T03:33:15;2.30;99.90
6865;DHT22;3471;49.678;8.388;2024-01-30T03:35:40;2.30;99.90
6865;DHT22;3471;49.678;8.388;2024-01-30T03:38:06;2.40;99.90
6865;DHT22;3471;49.678;8.388;2024-01-30T03:40:32;2.40;99.90
6865;DHT22;3471;49.678;8.388;2024-01-30T03:42:57;2.40;99.90
6865;DHT22;3471;49.678;8.388;2024-01-30T03:45:23;2.50;99.90
6865;DHT22;3471;49.678;8.388;2024-01-30T03:47:49;2.50;99.90
6865;DHT22;3471;49.678;8.388;2024-01-30T03:50:14;2.50;99.90
6865;DHT22;3471;49.678;8.388;2024-01-30T03:52:40;2.50;99.90
6865;DHT22;3471;49.678;8.388;2024-01-30T03:55:06;2.50;99.90
6865;DHT22;3471;49.678;8.388;2024-01-30T03:57:31;2.50;99.90
6865;DHT22;3471;49.678;8.388;2024-01-30T03:59:57;2.50;99.90
6865;DHT22;3471;49.678;8.388;2024-01-30T04:02:22;2.50;99.90
6865;DHT22;3471;49.678;8.388;2024-01-30T04:04:48;2.40;99.90
6865;DHT22;3471;49.678;8.388;2024-01-30T04:07:13;2.40;99.90
6865;DHT22;3471;49.678;8.388;2024-01-30T04:09:39;2.40;99.90
6865;DHT22;3471;49.678;8.388;2024-01-30T04:12:05;2.40;99.90
6865;DHT22;3471;49.678;8.388;2024-01-30T04:14:31;2.40;99.90
6865;DHT22;3471;49.678;8.388;2024-01-30T04:16:56;2.40;99.90
6865;DHT22;3471;49.678;8.388;2024-01-30T04:19:22;2.40;99.90
6865;DHT22;3471;49.678;8.388;2024-01-30T04:21:48;2.40;99.90
6865;DHT22;3471;49.678;8.388;2024-01-30T04:24:13;2.40;99.90
6865;DHT22;3471;49.678;8.388;2024-01-30T04:26:39;2.50;99.90
6865;DHT22;3471;49.678;8.388;2024-01-30T04:29:04;2.60;99.90
6865;DHT22;3471;49.678;8.388;2024-01-30T04:31:30;2.50;99.90
6865;DHT22;3471;49.678;8.388;2024-01-30T04:33:56;2.50;99.90
6865;DHT22;3471;49.678;8.388;2024-01-30T04:36:21;2.50;99.90
6865;DHT22;3471;49.678;8.388;2024-01-30T04:38:47;2.60;99.90
6865;DHT22;3471;49.678;8.388;2024-01-30T04:41:12;2.60;99.90
6865;DHT22;3471;49.678;8.388;2024-01-30T04:43:38;2.60;99.90
6865;DHT22;3471;49.678;8.388;2024-01-30T04:46:04;2.60;99.90
6865;DHT22;3471;49.678;8.388;2024-01-30T04:48:29;2.60;99.90
6865;DHT22;3471;49.678;8.388;2024-01-30T04:50:55;2.60;99.90
6865;DHT22;3471;49.678;8.388;2024-01-30T04:53:21;2.60;99.90
6865;DHT22;3471;49.678;8.388;2024-01-30T04:55:47;2.50;99.90
6865;DHT22;3471;49.678;8.388;2024-01-30T04:58:12;2.50;99.90
6865;DHT22;3471;49.678;8.388;2024-01-30T05:00:38;2.50;99.90
6865;DHT22;3471;49.678;8.388;2024-01-30T05:03:04;2.50;99.90
6865;DHT22;3471;49.678;8.388;2024-01-30T05:05:29;2.50;99.90
6865;DHT22;3471;49.678;8.388;2024-01-30T05:07:55;2.50;99.90
6865;DHT22;3471;49.678;8.388;2024-01-30T05:10:20;2.60;99.90
6865;DHT22;3471;49.678;8.388;2024-01-30T05:12:46;2.60;99.90
6865;DHT22;3471;49.678;8.388;2024-01-30T05:15:12;2.60;99.90
6865;DHT22;3471;49.678;8.388;2024-01-30T05:17:37;2.70;99.90
6865;DHT22;3471;49.678;8.388;2024-01-30T05:20:03;2.70;99.90
6865;DHT22;3471;49.678;8.388;2024-01-30T05:22:30;2.70;99.90
6865;DHT22;3471;49.678;8.388;2024-01-30T05:24:55;2.70;99.90
6865;DHT22;3471;49.678;8.388;2024-01-30T05:27:21;2.70;99.90
6865;DHT22;3471;49.678;8.388;2024-01-30T05:29:47;2.80;99.90
6865;DHT22;3471;49.678;8.388;2024-01-30T05:32:13;2.70;99.90
6865;DHT22;3471;49.678;8.388;2024-01-30T05:34:38;2.70;99.90
6865;DHT22;3471;49.678;8.388;2024-01-30T05:37:04;2.70;99.90
6865;DHT22;3471;49.678;8.388;2024-01-30T05:39:30;2.70;99.90
6865;DHT22;3471;49.678;8.388;2024-01-30T05:41:58;2.70;99.90
6865;DHT22;3471;49.678;8.388;2024-01-30T05:44:24;2.70;99.90
6865;DHT22;3471;49.678;8.388;2024-01-30T05:46:49;2.70;99.90
6865;DHT22;3471;49.678;8.388;2024-01-30T05:49:15;2.70;99.90
6865;DHT22;3471;49.678;8.388;2024-01-30T05:51:40;2.60;99.90
6865;DHT22;3471;49.678;8.388;2024-01-30T05:54:06;2.60;99.90
6865;DHT22;3471;49.678;8.388;2024-01-30T05:56:31;2.60;99.90
6865;DHT22;3471;49.678;8.388;2024-01-30T05:58:57;2.50;99.90
6865;DHT22;3471;49.678;8.388;2024-01-30T06:01:23;2.50;99.90
6865;DHT22;3471;49.678;8.388;2024-01-30T06:03:48;2.40;99.90
6865;DHT22;3471;49.678;8.388;2024-01-30T06:06:14;2.40;99.90
6865;DHT22;3471;49.678;8.388;2024-01-30T06:08:39;2.40;99.90
6865;DHT22;3471;49.678;8.388;2024-01-30T06:11:05;2.30;99.90
6865;DHT22;3471;49.678;8.388;2024-01-30T06:13:31;2.30;99.90
6865;DHT22;3471;49.678;8.388;2024-01-30T06:15:57;2.30;99.90
6865;DHT22;3471;49.678;8.388;2024-01-30T06:18:23;2.30;99.90
6865;DHT22;3471;49.678;8.388;2024-01-30T06:20:48;2.30;99.90
6865;DHT22;3471;49.678;8.388;2024-01-30T06:23:14;2.20;99.90
6865;DHT22;3471;49.678;8.388;2024-01-30T06:25:40;2.20;99.90
6865;DHT22;3471;49.678;8.388;2024-01-30T06:28:06;2.30;99.90
6865;DHT22;3471;49.678;8.388;2024-01-30T06:30:31;2.30;99.90
6865;DHT22;3471;49.678;8.388;2024-01-30T06:32:57;2.40;99.90
6865;DHT22;3471;49.678;8.388;2024-01-30T06:35:22;2.40;99.90
6865;DHT22;3471;49.678;8.388;2024-01-30T06:37:48;2.40;99.90
6865;DHT22;3471;49.678;8.388;2024-01-30T06:40:14;2.40;99.90
6865;DHT22;3471;49.678;8.388;2024-01-30T06:42:39;2.40;99.90
6865;DHT22;3471;49.678;8.388;2024-01-30T06:45:05;2.30;99.90
6865;DHT22;3471;49.678;8.388;2024-01-30T06:47:31;2.30;99.90
6865;DHT22;3471;49.678;8.388;2024-01-30T06:49:57;2.30;99.90
6865;DHT22;3471;49.678;8.388;2024-01-30T06:52:23;2.40;99.90
6865;DHT22;3471;49.678;8.388;2024-01-30T06:54:48;2.40;99.90
6865;DHT22;3471;49.678;8.388;2024-01-30T06:57:14;2.40;99.90
6865;DHT22;3471;49.678;8.388;2024-01-30T06:59:40;2.50;99.90
6865;DHT22;3471;49.678;8.388;2024-01-30T07:02:09;2.50;99.90
6865;DHT22;3471;49.678;8.388;2024-01-30T07:04:36;2.40;99.90
6865;DHT22;3471;49.678;8.388;2024-01-30T07:07:03;2.50;99.90
6865;DHT22;3471;49.678;8.388;2024-01-30T07:09:30;2.50;99.90
6865;DHT22;3471;49.678;8.388;2024-01-30T07:11:56;2.50;99.90
6865;DHT22;3471;49.678;8.388;2024-01-30T07:14:24;2.50;99.90
6865;DHT22;3471;49.678;8.388;2024-01-30T07:16:49;2.50;99.90
6865;DHT22;3471;49.678;8.388;2024-01-30T07:19:15;2.60;99.90
6865;DHT22;3471;49.678;8.388;2024-01-30T07:21:41;2.60;99.90
6865;DHT22;3471;49.678;8.388;2024-01-30T07:24:07;2.60;99.90
6865;DHT22;3471;49.678;8.388;2024-01-30T07:26:32;2.60;99.90
6865;DHT22;3471;49.678;8.388;2024-01-30T07:28:58;2.60;99.90
6865;DHT22;3471;49.678;8.388;2024-01-30T07:31:23;2.70;99.90
6865;DHT22;3471;49.678;8.388;2024-01-30T07:33:49;2.80;99.90
6865;DHT22;3471;49.678;8.388;2024-01-30T07:36:14;2.80;99.90
6865;DHT22;3471;49.678;8.388;2024-01-30T07:38:40;2.90;99.90
6865;DHT22;3471;49.678;8.388;2024-01-30T07:41:06;3.00;99.90
6865;DHT22;3471;49.678;8.388;2024-01-30T07:43:31;3.10;99.90
6865;DHT22;3471;49.678;8.388;2024-01-30T07:45:57;3.20;99.90
6865;DHT22;3471;49.678;8.388;2024-01-30T07:48:22;3.30;99.90
6865;DHT22;3471;49.678;8.388;2024-01-30T07:50:48;3.30;99.90
6865;DHT22;3471;49.678;8.388;2024-01-30T07:53:13;3.40;99.90
6865;DHT22;3471;49.678;8.388;2024-01-30T08:02:23;3.50;99.90
6865;DHT22;3471;49.678;8.388;2024-01-30T08:04:49;3.50;99.90
6865;DHT22;3471;49.678;8.388;2024-01-30T08:07:15;3.60;99.90
6865;DHT22;3471;49.678;8.388;2024-01-30T08:09:40;3.60;99.90
6865;DHT22;3471;49.678;8.388;2024-01-30T08:12:06;3.70;99.90
6865;DHT22;3471;49.678;8.388;2024-01-30T08:14:32;3.80;99.90
6865;DHT22;3471;49.678;8.388;2024-01-30T08:16:57;3.80;99.90
6865;DHT22;3471;49.678;8.388;2024-01-30T08:19:23;3.90;99.90
6865;DHT22;3471;49.678;8.388;2024-01-30T08:21:49;4.00;99.90
6865;DHT22;3471;49.678;8.388;2024-01-30T08:24:14;4.00;99.90
6865;DHT22;3471;49.678;8.388;2024-01-30T08:26:40;4.10;99.90
6865;DHT22;3471;49.678;8.388;2024-01-30T08:29:05;4.10;99.90
6865;DHT22;3471;49.678;8.388;2024-01-30T08:31:31;4.20;99.90
6865;DHT22;3471;49.678;8.388;2024-01-30T08:33:57;4.20;99.90
6865;DHT22;3471;49.678;8.388;2024-01-30T08:36:22;4.30;99.90
6865;DHT22;3471;49.678;8.388;2024-01-30T08:38:48;4.40;99.90
6865;DHT22;3471;49.678;8.388;2024-01-30T08:41:14;4.30;99.90
6865;DHT22;3471;49.678;8.388;2024-01-30T08:43:39;4.30;99.90
6865;DHT22;3471;49.678;8.388;2024-01-30T08:46:05;4.40;99.90
6865;DHT22;3471;49.678;8.388;2024-01-30T08:48:31;4.40;99.90
6865;DHT22;3471;49.678;8.388;2024-01-30T08:50:56;4.50;99.90
6865;DHT22;3471;49.678;8.388;2024-01-30T08:53:22;4.50;99.90
6865;DHT22;3471;49.678;8.388;2024-01-30T08:55:47;4.50;99.90
6865;DHT22;3471;49.678;8.388;2024-01-30T08:58:13;4.50;99.90
6865;DHT22;3471;49.678;8.388;2024-01-30T09:00:39;4.60;99.90
6865;DHT22;3471;49.678;8.388;2024-01-30T09:03:04;4.50;99.90
6865;DHT22;3471;49.678;8.388;2024-01-30T09:05:30;4.60;99.90
6865;DHT22;3471;49.678;8.388;2024-01-30T09:07:55;4.60;99.90
6865;DHT22;3471;49.678;8.388;2024-01-30T09:10:21;4.70;99.90
6865;DHT22;3471;49.678;8.388;2024-01-30T09:12:47;4.80;99.90
6865;DHT22;3471;49.678;8.388;2024-01-30T09:15:13;4.90;99.90
6865;DHT22;3471;49.678;8.388;2024-01-30T09:17:38;5.00;99.90
6865;DHT22;3471;49.678;8.388;2024-01-30T09:20:05;5.10;99.90
6865;DHT22;3471;49.678;8.388;2024-01-30T09:22:31;5.10;99.90
6865;DHT22;3471;49.678;8.388;2024-01-30T09:24:57;5.20;99.90
6865;DHT22;3471;49.678;8.388;2024-01-30T09:27:23;5.30;99.90
6865;DHT22;3471;49.678;8.388;2024-01-30T09:29:48;5.40;99.90
6865;DHT22;3471;49.678;8.388;2024-01-30T09:32:14;5.50;99.90
6865;DHT22;3471;49.678;8.388;2024-01-30T09:34:40;5.60;99.90
6865;DHT22;3471;49.678;8.388;2024-01-30T09:37:07;5.70;99.90
6865;DHT22;3471;49.678;8.388;2024-01-30T09:39:32;5.80;99.90
6865;DHT22;3471;49.678;8.388;2024-01-30T09:42:09;5.90;99.90
6865;DHT22;3471;49.678;8.388;2024-01-30T09:44:37;6.10;99.90
6865;DHT22;3471;49.678;8.388;2024-01-30T09:47:03;6.10;99.90
6865;DHT22;3471;49.678;8.388;2024-01-30T09:49:34;6.20;99.90
6865;DHT22;3471;49.678;8.388;2024-01-30T09:52:02;6.30;99.90
6865;DHT22;3471;49.678;8.388;2024-01-30T09:54:30;6.40;99.90
6865;DHT22;3471;49.678;8.388;2024-01-30T09:56:56;6.60;99.90
6865;DHT22;3471;49.678;8.388;2024-01-30T09:59:22;6.70;99.90
6865;DHT22;3471;49.678;8.388;2024-01-30T10:01:47;6.80;99.90
6865;DHT22;3471;49.678;8.388;2024-01-30T10:04:13;7.00;99.90
6865;DHT22;3471;49.678;8.388;2024-01-30T10:06:40;7.10;99.90
6865;DHT22;3471;49.678;8.388;2024-01-30T10:09:05;7.20;99.90
6865;DHT22;3471;49.678;8.388;2024-01-30T10:11:31;7.20;99.90
6865;DHT22;3471;49.678;8.388;2024-01-30T10:13:57;7.30;99.90
6865;DHT22;3471;49.678;8.388;2024-01-30T10:16:22;7.30;99.90
6865;DHT22;3471;49.678;8.388;2024-01-30T10:18:49;7.40;99.90
6865;DHT22;3471;49.678;8.388;2024-01-30T10:21:14;7.50;99.90
6865;DHT22;3471;49.678;8.388;2024-01-30T10:23:40;7.60;99.90
6865;DHT22;3471;49.678;8.388;2024-01-30T10:26:07;7.80;99.90
6865;DHT22;3471;49.678;8.388;2024-01-30T10:28:33;7.90;99.90
6865;DHT22;3471;49.678;8.388;2024-01-30T10:30:59;7.90;99.90
6865;DHT22;3471;49.678;8.388;2024-01-30T10:33:26;7.90;99.90
6865;DHT22;3471;49.678;8.388;2024-01-30T10:36:04;8.00;99.90
6865;DHT22;3471;49.678;8.388;2024-01-30T10:38:30;8.10;99.90
6865;DHT22;3471;49.678;8.388;2024-01-30T10:41:00;8.20;99.90
6865;DHT22;3471;49.678;8.388;2024-01-30T10:43:35;8.40;99.90
6865;DHT22;3471;49.678;8.388;2024-01-30T10:48:32;8.70;99.90
6865;DHT22;3471;49.678;8.388;2024-01-30T10:51:02;8.80;99.90
6865;DHT22;3471;49.678;8.388;2024-01-30T10:53:31;8.80;99.90
6865;DHT22;3471;49.678;8.388;2024-01-30T10:55:57;8.80;99.90
6865;DHT22;3471;49.678;8.388;2024-01-30T10:58:24;9.00;99.90
6865;DHT22;3471;49.678;8.388;2024-01-30T11:00:53;9.40;99.90
6865;DHT22;3471;49.678;8.388;2024-01-30T11:03:19;9.80;99.90
6865;DHT22;3471;49.678;8.388;2024-01-30T11:05:50;10.10;99.90
6865;DHT22;3471;49.678;8.388;2024-01-30T11:08:23;10.30;99.90
6865;DHT22;3471;49.678;8.388;2024-01-30T11:10:49;10.30;99.90
6865;DHT22;3471;49.678;8.388;2024-01-30T11:13:15;10.20;99.90
6865;DHT22;3471;49.678;8.388;2024-01-30T11:15:41;10.10;99.90
6865;DHT22;3471;49.678;8.388;2024-01-30T11:18:07;10.10;99.90
6865;DHT22;3471;49.678;8.388;2024-01-30T11:20:33;10.20;99.90
6865;DHT22;3471;49.678;8.388;2024-01-30T11:23:01;10.60;99.90
6865;DHT22;3471;49.678;8.388;2024-01-30T11:25:31;10.70;99.90
6865;DHT22;3471;49.678;8.388;2024-01-30T11:27:57;10.60;99.90
6865;DHT22;3471;49.678;8.388;2024-01-30T11:30:27;10.40;99.90
6865;DHT22;3471;49.678;8.388;2024-01-30T11:35:35;9.90;99.90
6865;DHT22;3471;49.678;8.388;2024-01-30T11:38:02;9.60;99.90
6865;DHT22;3471;49.678;8.388;2024-01-30T11:40:29;9.40;99.90
6865;DHT22;3471;49.678;8.388;2024-01-30T11:42:56;9.30;99.90
6865;DHT22;3471;49.678;8.388;2024-01-30T11:45:21;9.20;99.90
6865;DHT22;3471;49.678;8.388;2024-01-30T11:47:47;9.10;99.90
6865;DHT22;3471;49.678;8.388;2024-01-30T11:50:13;9.00;99.90
6865;DHT22;3471;49.678;8.388;2024-01-30T11:52:39;9.00;99.90
6865;DHT22;3471;49.678;8.388;2024-01-30T11:55:06;9.10;99.90
6865;DHT22;3471;49.678;8.388;2024-01-30T11:57:31;9.10;99.90
6865;DHT22;3471;49.678;8.388;2024-01-30T11:59:57;9.30;99.90
6865;DHT22;3471;49.678;8.388;2024-01-30T12:02:23;9.40;99.90
6865;DHT22;3471;49.678;8.388;2024-01-30T12:04:48;9.50;99.90
6865;DHT22;3471;49.678;8.388;2024-01-30T12:07:14;9.60;99.90
6865;DHT22;3471;49.678;8.388;2024-01-30T12:09:42;9.60;99.90
6865;DHT22;3471;49.678;8.388;2024-01-30T12:12:08;9.70;99.90
6865;DHT22;3471;49.678;8.388;2024-01-30T12:14:38;9.70;99.90
6865;DHT22;3471;49.678;8.388;2024-01-30T12:17:04;9.90;99.90
6865;DHT22;3471;49.678;8.388;2024-01-30T12:19:30;9.90;99.90
6865;DHT22;3471;49.678;8.388;2024-01-30T12:21:57;9.90;99.90
6865;DHT22;3471;49.678;8.388;2024-01-30T12:24:27;9.90;99.90
6865;DHT22;3471;49.678;8.388;2024-01-30T12:26:59;9.90;99.90
6865;DHT22;3471;49.678;8.388;2024-01-30T12:29:25;9.90;99.90
6865;DHT22;3471;49.678;8.388;2024-01-30T12:31:54;9.90;99.90
6865;DHT22;3471;49.678;8.388;2024-01-30T12:34:20;10.00;99.90
6865;DHT22;3471;49.678;8.388;2024-01-30T12:36:49;10.00;99.90
6865;DHT22;3471;49.678;8.388;2024-01-30T12:39:15;10.20;99.90
6865;DHT22;3471;49.678;8.388;2024-01-30T12:41:41;10.30;99.90
6865;DHT22;3471;49.678;8.388;2024-01-30T12:44:07;10.60;99.90
6865;DHT22;3471;49.678;8.388;2024-01-30T12:46:34;10.70;99.90
6865;DHT22;3471;49.678;8.388;2024-01-30T12:49:00;10.80;99.90
6865;DHT22;3471;49.678;8.388;2024-01-30T12:51:26;10.80;99.90
6865;DHT22;3471;49.678;8.388;2024-01-30T12:53:51;11.00;99.90
6865;DHT22;3471;49.678;8.388;2024-01-30T12:56:17;11.40;99.90
6865;DHT22;3471;49.678;8.388;2024-01-30T12:58:42;12.00;99.90
6865;DHT22;3471;49.678;8.388;2024-01-30T13:01:09;12.70;99.90
6865;DHT22;3471;49.678;8.388;2024-01-30T13:03:35;13.40;99.90
6865;DHT22;3471;49.678;8.388;2024-01-30T13:06:01;14.00;99.90
6865;DHT22;3471;49.678;8.388;2024-01-30T13:08:26;14.40;99.90
6865;DHT22;3471;49.678;8.388;2024-01-30T13:10:52;14.60;99.90
6865;DHT22;3471;49.678;8.388;2024-01-30T13:13:18;14.60;99.90
6865;DHT22;3471;49.678;8.388;2024-01-30T13:15:43;14.50;99.90
6865;DHT22;3471;49.678;8.388;2024-01-30T13:18:09;14.40;99.90
6865;DHT22;3471;49.678;8.388;2024-01-30T13:20:35;14.30;99.90
6865;DHT22;3471;49.678;8.388;2024-01-30T13:23:01;14.00;99.90
6865;DHT22;3471;49.678;8.388;2024-01-30T13:25:26;13.70;99.90
6865;DHT22;3471;49.678;8.388;2024-01-30T13:27:52;13.30;99.90
6865;DHT22;3471;49.678;8.388;2024-01-30T13:30:18;13.00;99.90
6865;DHT22;3471;49.678;8.388;2024-01-30T13:32:43;12.70;99.90
6865;DHT22;3471;49.678;8.388;2024-01-30T13:35:09;12.40;99.90
6865;DHT22;3471;49.678;8.388;2024-01-30T13:37:35;12.20;99.90
6865;DHT22;3471;49.678;8.388;2024-01-30T13:40:04;12.00;99.90
6865;DHT22;3471;49.678;8.388;2024-01-30T13:42:32;11.90;99.90
6865;DHT22;3471;49.678;8.388;2024-01-30T13:44:58;11.80;99.90
6865;DHT22;3471;49.678;8.388;2024-01-30T13:47:23;11.70;99.90
6865;DHT22;3471;49.678;8.388;2024-01-30T13:49:49;11.60;99.90
6865;DHT22;3471;49.678;8.388;2024-01-30T13:52:14;11.40;99.90
6865;DHT22;3471;49.678;8.388;2024-01-30T13:54:40;11.30;99.90
6865;DHT22;3471;49.678;8.388;2024-01-30T13:57:06;11.00;99.90
6865;DHT22;3471;49.678;8.388;2024-01-30T13:59:33;10.90;99.90
6865;DHT22;3471;49.678;8.388;2024-01-30T14:01:58;10.90;99.90
6865;DHT22;3471;49.678;8.388;2024-01-30T14:04:24;10.90;99.90
6865;DHT22;3471;49.678;8.388;2024-01-30T14:06:50;10.90;99.90
6865;DHT22;3471;49.678;8.388;2024-01-30T14:09:15;10.90;99.90
6865;DHT22;3471;49.678;8.388;2024-01-30T14:11:41;10.90;99.90
6865;DHT22;3471;49.678;8.388;2024-01-30T14:14:07;10.90;99.90
6865;DHT22;3471;49.678;8.388;2024-01-30T14:16:32;10.90;99.90
6865;DHT22;3471;49.678;8.388;2024-01-30T14:18:58;11.00;99.90
6865;DHT22;3471;49.678;8.388;2024-01-30T14:21:24;11.00;99.90
6865;DHT22;3471;49.678;8.388;2024-01-30T14:23:49;11.00;99.90
6865;DHT22;3471;49.678;8.388;2024-01-30T14:26:15;11.00;99.90
6865;DHT22;3471;49.678;8.388;2024-01-30T14:28:40;11.00;99.90
6865;DHT22;3471;49.678;8.388;2024-01-30T14:31:06;11.00;99.90
6865;DHT22;3471;49.678;8.388;2024-01-30T14:33:32;10.90;99.90
6865;DHT22;3471;49.678;8.388;2024-01-30T14:35:58;10.90;99.90
6865;DHT22;3471;49.678;8.388;2024-01-30T14:38:24;10.90;99.90
6865;DHT22;3471;49.678;8.388;2024-01-30T14:40:50;10.80;99.90
6865;DHT22;3471;49.678;8.388;2024-01-30T14:43:16;10.80;99.90
6865;DHT22;3471;49.678;8.388;2024-01-30T14:45:41;10.80;99.90
6865;DHT22;3471;49.678;8.388;2024-01-30T14:48:08;10.80;99.90
6865;DHT22;3471;49.678;8.388;2024-01-30T14:50:34;10.70;99.90
6865;DHT22;3471;49.678;8.388;2024-01-30T14:53:00;10.80;99.90
6865;DHT22;3471;49.678;8.388;2024-01-30T14:55:25;10.80;99.90
6865;DHT22;3471;49.678;8.388;2024-01-30T14:57:51;10.80;99.90
6865;DHT22;3471;49.678;8.388;2024-01-30T15:00:17;10.70;99.90
6865;DHT22;3471;49.678;8.388;2024-01-30T15:02:43;10.70;99.90
6865;DHT22;3471;49.678;8.388;2024-01-30T15:05:08;10.60;99.90
6865;DHT22;3471;49.678;8.388;2024-01-30T15:07:36;10.60;99.90
6865;DHT22;3471;49.678;8.388;2024-01-30T15:10:02;10.50;99.90
6865;DHT22;3471;49.678;8.388;2024-01-30T15:12:28;10.50;99.90
6865;DHT22;3471;49.678;8.388;2024-01-30T15:14:54;10.40;99.90
6865;DHT22;3471;49.678;8.388;2024-01-30T15:17:20;10.40;99.90
6865;DHT22;3471;49.678;8.388;2024-01-30T15:19:47;10.30;99.90
6865;DHT22;3471;49.678;8.388;2024-01-30T15:22:13;10.30;99.90
6865;DHT22;3471;49.678;8.388;2024-01-30T15:24:38;10.20;99.90
6865;DHT22;3471;49.678;8.388;2024-01-30T15:27:04;10.20;99.90
6865;DHT22;3471;49.678;8.388;2024-01-30T15:29:30;10.20;99.90
6865;DHT22;3471;49.678;8.388;2024-01-30T15:31:55;10.10;99.90
6865;DHT22;3471;49.678;8.388;2024-01-30T15:34:21;10.10;99.90
6865;DHT22;3471;49.678;8.388;2024-01-30T15:36:47;10.00;99.90
6865;DHT22;3471;49.678;8.388;2024-01-30T15:39:13;10.00;99.90
6865;DHT22;3471;49.678;8.388;2024-01-30T15:41:40;9.90;99.90
6865;DHT22;3471;49.678;8.388;2024-01-30T15:44:06;9.80;99.90
6865;DHT22;3471;49.678;8.388;2024-01-30T15:46:32;9.80;99.90
6865;DHT22;3471;49.678;8.388;2024-01-30T15:48:57;9.80;99.90
6865;DHT22;3471;49.678;8.388;2024-01-30T15:51:24;9.80;99.90
6865;DHT22;3471;49.678;8.388;2024-01-30T15:53:50;9.70;99.90
6865;DHT22;3471;49.678;8.388;2024-01-30T15:56:16;9.70;99.90
6865;DHT22;3471;49.678;8.388;2024-01-30T15:58:41;9.70;99.90
6865;DHT22;3471;49.678;8.388;2024-01-30T16:01:07;9.70;99.90
6865;DHT22;3471;49.678;8.388;2024-01-30T16:03:32;9.70;99.90
6865;DHT22;3471;49.678;8.388;2024-01-30T16:05:58;9.70;99.90
6865;DHT22;3471;49.678;8.388;2024-01-30T16:08:24;9.70;99.90
6865;DHT22;3471;49.678;8.388;2024-01-30T16:10:50;9.60;99.90
6865;DHT22;3471;49.678;8.388;2024-01-30T16:13:15;9.60;99.90
6865;DHT22;3471;49.678;8.388;2024-01-30T16:15:41;9.60;99.90
6865;DHT22;3471;49.678;8.388;2024-01-30T16:18:08;9.50;99.90